Time;durP1;ratioP1;P1;durP2;ratioP2;P2;SDS_P1;SDS_P2;PMS_P1;PMS_P2;Temp;Humidity;BMP_temperature;BMP_pressure;BME280_temperature;BME280_humidity;BME280_pressure;Samples;Min_cycle;Max_cycle;Signal;HPM_P1;HPM_P2
2021/06/15 00:01:38;;;;;;;2.70;1.50;;;9.10;99.90;;;;;;5038877;28;21704;-73
2021/06/15 00:04:04;;;;;;;4.57;1.30;;;9.20;99.90;;;;;;5037109;28;20209;-74
2021/06/15 00:06:30;;;;;;;2.97;1.50;;;9.30;99.90;;;;;;5038790;28;20292;-74
2021/06/15 00:08:55;;;;;;;14.23;2.00;;;9.20;99.90;;;;;;5039390;28;20213;-74
2021/06/15 00:11:21;;;;;;;3.28;1.75;;;9.20;99.90;;;;;;5019978;28;20197;-74
2021/06/15 00:13:47;;;;;;;3.58;1.48;;;9.10;99.90;;;;;;5039540;28;20186;-74
2021/06/15 00:16:12;;;;;;;12.63;1.63;;;9.00;99.90;;;;;;5018595;28;20552;-74
2021/06/15 00:18:38;;;;;;;5.25;1.50;;;8.80;99.90;;;;;;5037716;28;20193;-74
2021/06/15 00:21:04;;;;;;;4.13;1.30;;;8.70;99.90;;;;;;5020895;28;20240;-74
2021/06/15 00:23:29;;;;;;;4.93;1.63;;;8.60;99.90;;;;;;5038674;28;20201;-73
2021/06/15 00:25:55;;;;;;;5.55;1.83;;;8.60;99.90;;;;;;5038985;28;20197;-74
2021/06/15 00:28:21;;;;;;;4.85;1.67;;;8.50;99.90;;;;;;5039114;28;20206;-74
2021/06/15 00:30:47;;;;;;;4.72;1.55;;;8.50;99.90;;;;;;5038082;28;20281;-74
2021/06/15 00:33:13;;;;;;;4.55;1.60;;;8.40;99.90;;;;;;5019848;28;20220;-75
2021/06/15 00:35:38;;;;;;;2.33;1.40;;;8.30;99.90;;;;;;5021222;28;20672;-75
2021/06/15 00:38:04;;;;;;;2.72;1.35;;;8.20;99.90;;;;;;5024583;28;20194;-75
2021/06/15 00:40:30;;;;;;;2.15;1.48;;;8.10;99.90;;;;;;5024126;28;20212;-75
2021/06/15 00:42:56;;;;;;;4.97;1.60;;;8.00;99.90;;;;;;5041640;28;20562;-74
2021/06/15 00:45:27;;;;;;;6.18;1.52;;;7.90;99.90;;;;;;5042167;28;20579;-74
2021/06/15 00:47:54;;;;;;;8.27;1.52;;;7.80;99.90;;;;;;5042798;28;20198;-75
2021/06/15 00:50:22;;;;;;;6.05;1.40;;;7.80;99.90;;;;;;5026784;28;20205;-75
2021/06/15 00:52:48;;;;;;;2.20;1.40;;;7.70;99.90;;;;;;5045008;28;20258;-74
2021/06/15 00:55:14;;;;;;;5.38;1.52;;;7.70;99.90;;;;;;5024326;28;20716;-74
2021/06/15 00:57:40;;;;;;;4.20;1.60;;;7.70;99.90;;;;;;5026476;28;20194;-75
2021/06/15 01:00:08;;;;;;;2.20;1.50;;;7.70;99.90;;;;;;5043184;28;20234;-75
2021/06/15 01:02:37;;;;;;;3.28;1.38;;;7.60;99.90;;;;;;5024746;28;20209;-74
2021/06/15 01:05:05;;;;;;;4.82;1.60;;;7.50;99.90;;;;;;5026082;28;20320;-73
2021/06/15 01:07:36;;;;;;;6.50;1.55;;;7.40;99.90;;;;;;5044246;28;20308;-74
2021/06/15 01:10:33;;;;;;;9.32;1.60;;;7.40;99.90;;;;;;5043913;28;20225;-74
2021/06/15 01:13:19;;;;;;;3.83;1.42;;;7.30;99.90;;;;;;5044152;28;20701;-74
2021/06/15 01:15:47;;;;;;;1.75;1.50;;;7.20;99.90;;;;;;5041873;28;20193;-74
2021/06/15 01:18:18;;;;;;;1.92;1.23;;;7.10;99.90;;;;;;5043019;28;20808;-74
2021/06/15 01:20:51;;;;;;;2.50;1.30;;;7.00;99.90;;;;;;5044809;28;20267;-74
2021/06/15 01:23:48;;;;;;;4.32;1.52;;;6.90;99.90;;;;;;5027086;28;20675;-74
2021/06/15 01:26:41;;;;;;;11.57;1.70;;;7.00;99.90;;;;;;5038600;28;20379;-74
2021/06/15 01:29:17;;;;;;;1.60;1.50;;;6.90;99.90;;;;;;5024255;28;20209;-74
2021/06/15 01:31:55;;;;;;;3.38;1.35;;;7.00;99.90;;;;;;5026190;28;20268;-75
2021/06/15 01:34:29;;;;;;;3.20;1.30;;;6.90;99.90;;;;;;5039988;28;20212;-75
2021/06/15 01:37:09;;;;;;;3.85;1.38;;;6.90;99.90;;;;;;5042865;28;20690;-75
2021/06/15 01:39:44;;;;;;;2.10;1.45;;;6.90;99.90;;;;;;5027065;28;20201;-75
2021/06/15 01:42:26;;;;;;;5.32;1.50;;;6.80;99.90;;;;;;5026100;28;20224;-74
2021/06/15 01:44:58;;;;;;;21.92;2.10;;;6.80;99.90;;;;;;5043842;28;20280;-74
2021/06/15 01:47:27;;;;;;;2.38;1.42;;;6.70;99.90;;;;;;5044455;28;20209;-74
2021/06/15 01:50:02;;;;;;;1.33;1.23;;;6.70;99.90;;;;;;5043012;28;20202;-75
2021/06/15 01:52:32;;;;;;;2.45;1.50;;;6.70;99.90;;;;;;5044455;28;20526;-74
2021/06/15 01:54:59;;;;;;;5.68;1.42;;;6.70;99.90;;;;;;5043956;28;20201;-75
2021/06/15 01:57:25;;;;;;;2.20;1.45;;;6.70;99.90;;;;;;5026590;28;20663;-75
2021/06/15 01:59:54;;;;;;;1.55;1.40;;;6.70;99.90;;;;;;5042260;28;20205;-74
2021/06/15 02:02:20;;;;;;;4.22;1.50;;;6.60;99.90;;;;;;5038802;28;20198;-74
2021/06/15 02:04:48;;;;;;;3.67;1.30;;;6.60;99.90;;;;;;5043181;28;20228;-74
2021/06/15 02:07:17;;;;;;;1.60;1.30;;;6.60;99.90;;;;;;5027174;28;20205;-75
2021/06/15 02:09:49;;;;;;;3.20;1.20;;;6.60;99.90;;;;;;5042376;28;20863;-74
2021/06/15 02:12:18;;;;;;;8.43;1.70;;;6.60;99.90;;;;;;5026047;28;20197;-75
2021/06/15 02:14:44;;;;;;;7.28;1.77;;;6.60;99.90;;;;;;5044051;28;20228;-75
2021/06/15 02:17:14;;;;;;;2.40;1.60;;;6.60;99.90;;;;;;5043581;28;20190;-74
2021/06/15 02:19:40;;;;;;;1.60;1.50;;;6.70;99.90;;;;;;5023540;28;20292;-74
2021/06/15 02:22:14;;;;;;;1.60;1.40;;;6.70;99.90;;;;;;5044298;28;20247;-74
2021/06/15 02:24:58;;;;;;;1.40;1.30;;;6.70;99.90;;;;;;5042630;28;20250;-74
2021/06/15 02:27:24;;;;;;;1.98;1.42;;;6.70;99.90;;;;;;5043392;28;20208;-75
2021/06/15 02:29:55;;;;;;;3.05;1.40;;;6.80;99.90;;;;;;5042652;28;20205;-75
2021/06/15 02:32:33;;;;;;;2.83;1.40;;;6.80;99.90;;;;;;5024847;28;20201;-74
2021/06/15 02:35:01;;;;;;;1.85;1.40;;;6.80;99.90;;;;;;5041240;28;20186;-75
2021/06/15 02:37:32;;;;;;;1.92;1.50;;;6.90;99.90;;;;;;5044838;28;20193;-75
2021/06/15 02:40:00;;;;;;;4.18;1.48;;;6.90;99.90;;;;;;5042380;28;20548;-74
2021/06/15 02:42:27;;;;;;;1.85;1.30;;;7.00;99.90;;;;;;5043021;28;20613;-74
2021/06/15 02:44:57;;;;;;;2.45;1.55;;;7.10;99.90;;;;;;5041089;28;20293;-75
2021/06/15 02:47:24;;;;;;;2.28;1.40;;;7.10;99.90;;;;;;5042995;28;20208;-74
2021/06/15 02:50:00;;;;;;;2.90;1.58;;;7.20;99.90;;;;;;5022637;28;20621;-74
2021/06/15 02:52:48;;;;;;;4.78;1.60;;;7.20;99.90;;;;;;5042071;28;20247;-74
2021/06/15 02:55:20;;;;;;;4.25;1.40;;;7.30;99.90;;;;;;5041775;28;20204;-74
2021/06/15 02:57:47;;;;;;;1.63;1.50;;;7.40;99.90;;;;;;5020699;28;20196;-75
2021/06/15 03:00:13;;;;;;;1.73;1.50;;;7.50;99.90;;;;;;5022696;28;20500;-74
2021/06/15 03:02:39;;;;;;;2.42;1.70;;;7.50;99.90;;;;;;5041001;28;20205;-75
2021/06/15 03:05:17;;;;;;;7.60;1.67;;;7.60;99.90;;;;;;5019643;28;20230;-75
2021/06/15 03:07:44;;;;;;;5.35;1.52;;;7.60;99.90;;;;;;5021313;28;20221;-75
2021/06/15 03:10:10;;;;;;;4.20;1.60;;;7.70;99.90;;;;;;5018129;28;20265;-74
2021/06/15 03:12:57;;;;;;;6.75;1.58;;;7.80;99.90;;;;;;5024084;28;20186;-74
2021/06/15 03:15:34;;;;;;;2.40;1.70;;;7.80;99.90;;;;;;5014433;28;20682;-75
2021/06/15 03:18:11;;;;;;;2.33;1.55;;;7.90;99.90;;;;;;5038993;28;20194;-74
2021/06/15 03:20:37;;;;;;;1.92;1.65;;;8.00;99.90;;;;;;5021532;28;20289;-75
2021/06/15 03:23:10;;;;;;;3.40;1.50;;;8.10;99.90;;;;;;5022922;28;20194;-75
2021/06/15 03:25:36;;;;;;;1.70;1.50;;;8.10;99.90;;;;;;5021958;28;20696;-75
2021/06/15 03:28:11;;;;;;;8.82;1.77;;;8.20;99.90;;;;;;5023361;28;20193;-75
2021/06/15 03:30:42;;;;;;;1.90;1.55;;;8.30;99.90;;;;;;5021920;28;20229;-75
2021/06/15 03:33:10;;;;;;;2.97;1.75;;;8.40;99.90;;;;;;5023406;28;20190;-75
2021/06/15 03:35:42;;;;;;;4.38;1.48;;;8.50;99.90;;;;;;5022933;28;20272;-74
2021/06/15 03:38:10;;;;;;;4.55;1.50;;;8.60;99.90;;;;;;5021857;28;20201;-75
2021/06/15 03:40:47;;;;;;;2.28;1.73;;;8.60;99.90;;;;;;5023258;28;20201;-75
2021/06/15 03:43:14;;;;;;;3.00;1.60;;;8.70;99.90;;;;;;5022773;28;20570;-75
2021/06/15 03:45:43;;;;;;;2.58;1.50;;;8.80;99.90;;;;;;5021270;28;20225;-75
2021/06/15 03:48:11;;;;;;;5.63;1.50;;;8.80;99.90;;;;;;5022668;28;20198;-74
2021/06/15 03:50:37;;;;;;;5.18;1.60;;;8.90;99.90;;;;;;5018137;28;20198;-74
2021/06/15 03:53:07;;;;;;;3.08;1.50;;;9.00;99.90;;;;;;5022314;28;20281;-74
2021/06/15 03:55:36;;;;;;;2.58;1.45;;;9.10;99.90;;;;;;5020647;28;20190;-75
2021/06/15 03:58:04;;;;;;;2.17;1.45;;;9.20;99.90;;;;;;5037416;28;20194;-74
2021/06/15 04:00:32;;;;;;;4.07;1.60;;;9.30;99.90;;;;;;5018550;28;20676;-74
2021/06/15 04:02:59;;;;;;;1.90;1.58;;;9.40;99.90;;;;;;5019088;28;20542;-74
2021/06/15 04:05:27;;;;;;;3.47;1.75;;;9.50;99.90;;;;;;5028907;28;20233;-74
2021/06/15 04:07:55;;;;;;;5.40;1.60;;;9.60;99.90;;;;;;5040507;28;20284;-74
2021/06/15 04:10:21;;;;;;;2.20;1.40;;;9.70;99.90;;;;;;5037235;28;20211;-74
2021/06/15 04:12:48;;;;;;;2.92;1.30;;;9.90;99.90;;;;;;5038678;28;20185;-74
2021/06/15 04:15:18;;;;;;;2.72;1.38;;;10.00;99.90;;;;;;5021464;28;20672;-74
2021/06/15 04:17:50;;;;;;;3.10;1.45;;;10.10;99.90;;;;;;5044760;28;20189;-74
2021/06/15 04:20:24;;;;;;;3.17;1.48;;;10.60;99.90;;;;;;5043271;28;20247;-75
2021/06/15 04:22:51;;;;;;;2.38;1.40;;;10.90;99.90;;;;;;5022961;28;20208;-75
2021/06/15 04:25:24;;;;;;;2.90;1.40;;;11.50;99.90;;;;;;5023342;28;20270;-75
2021/06/15 04:27:50;;;;;;;1.98;1.38;;;11.80;99.90;;;;;;5045046;28;20205;-75
2021/06/15 04:30:19;;;;;;;12.48;1.75;;;12.10;99.90;;;;;;5044089;28;20517;-75
2021/06/15 04:32:53;;;;;;;3.97;1.40;;;12.30;99.90;;;;;;5046113;28;20284;-75
2021/06/15 04:35:31;;;;;;;9.32;1.70;;;12.60;99.90;;;;;;5026219;28;20194;-75
2021/06/15 04:38:01;;;;;;;5.28;1.23;;;12.90;99.90;;;;;;5028195;28;20773;-75
2021/06/15 04:40:51;;;;;;;4.28;1.40;;;13.00;99.90;;;;;;5026348;28;20333;-76
2021/06/15 04:43:25;;;;;;;3.25;0.98;;;12.90;99.90;;;;;;5028091;28;20221;-75
2021/06/15 04:45:54;;;;;;;2.80;1.33;;;12.90;99.90;;;;;;5042025;28;20196;-74
2021/06/15 04:48:39;;;;;;;4.88;1.20;;;12.90;99.90;;;;;;5044680;28;20198;-75
2021/06/15 04:51:06;;;;;;;3.22;1.20;;;12.90;99.90;;;;;;5046367;28;20205;-74
2021/06/15 04:53:37;;;;;;;4.90;1.30;;;12.90;99.90;;;;;;5049249;28;20292;-75
2021/06/15 04:56:04;;;;;;;3.75;1.00;;;13.20;99.90;;;;;;5047077;28;20308;-74
2021/06/15 04:58:32;;;;;;;7.55;1.48;;;13.40;99.90;;;;;;5041256;28;20193;-75
2021/06/15 05:01:00;;;;;;;2.15;1.10;;;13.60;99.90;;;;;;5023037;28;20201;-75
2021/06/15 05:03:29;;;;;;;3.67;1.35;;;13.70;99.90;;;;;;5043797;28;20236;-75
2021/06/15 05:05:57;;;;;;;4.05;1.20;;;13.80;99.90;;;;;;5042192;28;20316;-74
2021/06/15 05:08:25;;;;;;;2.00;1.00;;;13.90;99.90;;;;;;5045558;28;20718;-74
2021/06/15 05:10:53;;;;;;;2.63;1.20;;;14.00;99.90;;;;;;5046304;28;20617;-74
2021/06/15 05:13:21;;;;;;;2.40;1.10;;;14.00;99.90;;;;;;5045121;28;20197;-74
2021/06/15 05:15:48;;;;;;;5.63;1.05;;;14.00;99.90;;;;;;5042274;28;20292;-74
2021/06/15 05:18:14;;;;;;;4.18;1.02;;;14.20;99.90;;;;;;5040505;28;20265;-74
2021/06/15 05:20:42;;;;;;;4.43;1.00;;;14.30;99.90;;;;;;5024787;28;20337;-74
2021/06/15 05:23:38;;;;;;;2.83;1.25;;;14.20;99.90;;;;;;5025897;28;20202;-74
2021/06/15 05:26:04;;;;;;;3.38;1.00;;;14.10;99.90;;;;;;5040977;28;20555;-74
2021/06/15 05:28:29;;;;;;;2.85;1.00;;;14.10;99.90;;;;;;5026940;28;20200;-74
2021/06/15 05:30:55;;;;;;;2.58;1.10;;;14.20;99.90;;;;;;5022028;28;20197;-74
2021/06/15 05:33:21;;;;;;;3.45;1.10;;;14.40;99.90;;;;;;5046588;28;20197;-74
2021/06/15 05:35:47;;;;;;;1.17;0.82;;;14.50;99.90;;;;;;5040014;28;20190;-75
2021/06/15 05:38:14;;;;;;;1.55;0.88;;;14.30;99.90;;;;;;5025021;28;20199;-74
2021/06/15 05:40:40;;;;;;;3.78;1.05;;;14.30;99.90;;;;;;5042898;28;20295;-76
2021/06/15 05:43:06;;;;;;;6.47;0.90;;;14.40;99.90;;;;;;5042402;28;20208;-75
2021/06/15 05:45:32;;;;;;;1.42;0.98;;;14.80;99.90;;;;;;5025809;28;20198;-75
2021/06/15 05:47:58;;;;;;;2.17;0.95;;;15.20;99.90;;;;;;5027741;28;20204;-75
2021/06/15 05:50:23;;;;;;;2.55;1.02;;;15.80;99.90;;;;;;5025386;28;20197;-75
2021/06/15 05:52:49;;;;;;;0.77;0.70;;;15.90;99.90;;;;;;5040888;28;20603;-75
2021/06/15 05:55:15;;;;;;;6.45;1.05;;;15.80;99.90;;;;;;5042136;28;20201;-74
2021/06/15 05:57:41;;;;;;;2.28;0.93;;;15.80;99.90;;;;;;5041861;28;20202;-75
2021/06/15 06:00:08;;;;;;;1.48;0.80;;;15.70;99.90;;;;;;5025658;28;20231;-73
2021/06/15 06:02:34;;;;;;;2.22;1.02;;;15.70;99.90;;;;;;5041799;28;20201;-75
2021/06/15 06:10:11;;;;;;;5.00;1.00;;;15.90;99.90;;;;;;5032516;28;20252;-75
2021/06/15 06:12:38;;;;;;;4.40;0.93;;;16.30;99.90;;;;;;5017640;28;21307;-75
2021/06/15 06:15:06;;;;;;;2.17;0.90;;;16.60;99.90;;;;;;5039241;28;20194;-75
2021/06/15 06:17:32;;;;;;;2.78;1.17;;;16.60;99.90;;;;;;5038594;28;20233;-75
2021/06/15 06:19:58;;;;;;;4.75;0.82;;;16.20;99.90;;;;;;5016207;28;20194;-76
2021/06/15 06:22:24;;;;;;;2.03;0.80;;;16.60;99.90;;;;;;5037941;28;20197;-75
2021/06/15 06:24:50;;;;;;;3.60;0.90;;;17.00;99.90;;;;;;5032366;28;20711;-76
2021/06/15 06:27:16;;;;;;;2.30;0.82;;;17.50;99.90;;;;;;5033656;28;20190;-74
2021/06/15 06:29:42;;;;;;;0.98;0.82;;;17.30;99.90;;;;;;5031306;28;20268;-76
2021/06/15 06:32:08;;;;;;;3.80;0.90;;;17.20;99.90;;;;;;5037812;28;20203;-75
2021/06/15 06:34:34;;;;;;;2.35;0.80;;;16.70;99.90;;;;;;5040833;28;20239;-76
2021/06/15 06:36:59;;;;;;;1.75;0.63;;;16.50;99.90;;;;;;5031724;28;20193;-77
2021/06/15 06:39:25;;;;;;;4.18;0.90;;;16.50;99.90;;;;;;5035621;28;20212;-75
2021/06/15 06:41:51;;;;;;;1.13;0.82;;;16.70;99.90;;;;;;5014103;28;20202;-75
2021/06/15 06:44:17;;;;;;;1.90;0.80;;;16.50;99.90;;;;;;5041508;28;20305;-76
2021/06/15 06:46:43;;;;;;;2.45;0.65;;;16.40;99.90;;;;;;5034470;28;20235;-75
2021/06/15 06:49:09;;;;;;;3.05;0.90;;;16.80;99.90;;;;;;5038131;28;20495;-77
2021/06/15 06:51:35;;;;;;;1.42;0.70;;;16.70;99.90;;;;;;5037036;28;20212;-77
2021/06/15 06:54:00;;;;;;;1.67;0.77;;;17.40;99.90;;;;;;5014242;28;20255;-77
2021/06/15 06:56:27;;;;;;;1.98;0.95;;;17.50;99.90;;;;;;5040580;28;20243;-77
2021/06/15 06:58:54;;;;;;;4.35;0.90;;;17.60;99.90;;;;;;5021167;28;20209;-75
2021/06/15 07:01:21;;;;;;;0.95;0.60;;;17.80;99.90;;;;;;5036072;28;20229;-75
2021/06/15 07:03:48;;;;;;;3.88;0.70;;;18.10;99.90;;;;;;5035538;28;20677;-76
2021/06/15 07:06:14;;;;;;;5.90;0.70;;;18.10;99.90;;;;;;5037169;28;20229;-76
2021/06/15 07:08:39;;;;;;;2.00;0.60;;;17.80;99.90;;;;;;5019801;28;20220;-76
2021/06/15 07:11:05;;;;;;;2.78;0.60;;;17.60;99.90;;;;;;5016886;28;20194;-76
2021/06/15 07:13:31;;;;;;;1.73;0.70;;;17.80;99.90;;;;;;5035841;28;20272;-75
2021/06/15 07:15:56;;;;;;;0.80;0.60;;;17.90;99.90;;;;;;5032172;28;20260;-76
2021/06/15 07:18:22;;;;;;;1.00;0.68;;;18.20;99.90;;;;;;5037742;28;20190;-76
2021/06/15 07:20:48;;;;;;;1.63;0.50;;;18.40;99.90;;;;;;5039237;28;20694;-76
2021/06/15 07:23:14;;;;;;;2.70;0.60;;;18.90;99.90;;;;;;5038016;28;20323;-76
2021/06/15 07:25:40;;;;;;;6.28;0.70;;;19.10;99.90;;;;;;5012951;28;20209;-76
2021/06/15 07:28:06;;;;;;;1.95;0.47;;;19.30;99.90;;;;;;5037138;28;20204;-75
2021/06/15 07:30:32;;;;;;;1.45;0.55;;;19.10;99.90;;;;;;5037887;28;20644;-76
2021/06/15 07:32:58;;;;;;;1.42;0.60;;;19.10;99.90;;;;;;5037247;28;20209;-76
2021/06/15 07:35:25;;;;;;;2.13;0.80;;;19.00;99.90;;;;;;5038395;28;20204;-76
2021/06/15 07:37:51;;;;;;;3.97;0.90;;;19.10;99.90;;;;;;5034804;28;20946;-77
2021/06/15 07:40:23;;;;;;;1.63;0.70;;;19.00;99.90;;;;;;5037481;28;20197;-76
2021/06/15 07:42:56;;;;;;;2.08;0.45;;;18.90;99.90;;;;;;5037224;28;20324;-76
2021/06/15 07:45:24;;;;;;;2.05;0.60;;;19.00;99.90;;;;;;5015996;28;20586;-76
2021/06/15 07:47:51;;;;;;;1.60;0.60;;;19.10;99.90;;;;;;5034490;28;20217;-76
2021/06/15 07:50:17;;;;;;;1.15;0.40;;;19.10;99.90;;;;;;5018712;28;20213;-76
2021/06/15 07:52:44;;;;;;;1.10;0.60;;;19.10;98.70;;;;;;5020720;28;20319;-75
2021/06/15 07:55:11;;;;;;;4.43;0.80;;;19.00;99.90;;;;;;5034605;28;20675;-75
2021/06/15 07:57:37;;;;;;;3.55;0.50;;;19.20;99.90;;;;;;5036279;28;20224;-75
2021/06/15 08:00:07;;;;;;;2.15;0.55;;;19.20;99.90;;;;;;5036725;28;20280;-75
2021/06/15 08:02:33;;;;;;;0.73;0.35;;;19.30;97.70;;;;;;5036341;28;20232;-76
2021/06/15 08:04:59;;;;;;;2.97;0.57;;;19.10;98.30;;;;;;5033487;28;20219;-76
2021/06/15 08:07:25;;;;;;;2.00;0.50;;;19.00;97.70;;;;;;5036011;28;20201;-76
2021/06/15 08:09:50;;;;;;;5.60;0.70;;;19.20;99.60;;;;;;5035548;28;20235;-74
2021/06/15 08:12:17;;;;;;;2.75;0.60;;;19.60;99.90;;;;;;5037713;28;20204;-75
2021/06/15 08:14:44;;;;;;;2.70;0.47;;;19.70;96.50;;;;;;5034384;28;20186;-76
2021/06/15 08:17:10;;;;;;;2.92;0.80;;;19.50;96.60;;;;;;5033849;28;20237;-74
2021/06/15 08:19:35;;;;;;;0.93;0.50;;;19.40;97.00;;;;;;5033450;28;20282;-76
2021/06/15 08:22:01;;;;;;;1.95;0.60;;;19.60;95.20;;;;;;5035760;28;20768;-77
2021/06/15 08:24:27;;;;;;;2.38;1.23;;;19.40;95.70;;;;;;5033659;28;20198;-75
2021/06/15 08:26:52;;;;;;;5.85;0.63;;;19.50;96.30;;;;;;5036908;28;20197;-76
2021/06/15 08:29:18;;;;;;;1.25;0.57;;;19.80;95.90;;;;;;5035936;28;20266;-75
2021/06/15 08:31:44;;;;;;;3.13;0.73;;;19.70;96.60;;;;;;5036205;28;20293;-75
2021/06/15 08:34:11;;;;;;;4.53;0.60;;;19.90;95.90;;;;;;5034553;28;21037;-74
2021/06/15 08:36:37;;;;;;;0.45;0.40;;;20.10;92.90;;;;;;5035047;28;20652;-76
2021/06/15 08:39:07;;;;;;;1.33;0.50;;;20.10;96.30;;;;;;5038230;28;20240;-76
2021/06/15 08:41:32;;;;;;;1.70;0.60;;;20.60;96.50;;;;;;5033767;28;20687;-76
2021/06/15 08:43:59;;;;;;;2.40;0.65;;;21.00;95.20;;;;;;5037295;28;20199;-77
2021/06/15 08:46:25;;;;;;;1.63;0.70;;;20.90;92.90;;;;;;5040144;28;20214;-75
2021/06/15 08:48:50;;;;;;;3.50;0.88;;;20.60;94.30;;;;;;5039348;28;20210;-75
2021/06/15 08:51:16;;;;;;;2.05;0.50;;;20.80;94.70;;;;;;5023288;28;20201;-75
2021/06/15 08:53:43;;;;;;;0.88;0.40;;;21.10;91.90;;;;;;5023595;28;20194;-76
2021/06/15 08:56:24;;;;;;;4.43;0.70;;;20.80;90.60;;;;;;5023043;28;20205;-75
2021/06/15 08:58:58;;;;;;;1.33;0.40;;;20.70;93.00;;;;;;5039639;28;20197;-76
2021/06/15 09:01:24;;;;;;;7.15;0.60;;;20.70;91.70;;;;;;5039998;28;20189;-77
2021/06/15 09:03:51;;;;;;;4.10;0.60;;;20.60;91.30;;;;;;5020628;28;20205;-76
2021/06/15 09:06:17;;;;;;;1.95;0.50;;;20.90;92.60;;;;;;5044504;28;20300;-76
2021/06/15 09:08:57;;;;;;;1.73;0.60;;;21.40;92.40;;;;;;5044104;28;20296;-77
2021/06/15 09:11:24;;;;;;;1.20;0.60;;;21.60;91.30;;;;;;5043736;28;20190;-77
2021/06/15 09:13:51;;;;;;;1.20;0.50;;;22.10;92.10;;;;;;5043551;28;20643;-77
2021/06/15 09:16:36;;;;;;;1.83;0.50;;;22.30;90.60;;;;;;5043730;28;20272;-76
2021/06/15 09:19:14;;;;;;;0.63;0.40;;;22.20;87.50;;;;;;5025479;28;20204;-77
2021/06/15 09:21:42;;;;;;;1.08;0.60;;;22.00;86.70;;;;;;5027697;28;20296;-76
2021/06/15 09:24:21;;;;;;;1.58;0.52;;;21.50;86.30;;;;;;5045667;28;20243;-75
2021/06/15 09:26:56;;;;;;;0.85;0.50;;;21.60;91.00;;;;;;5042436;28;20620;-76
2021/06/15 09:29:50;;;;;;;1.77;0.50;;;22.00;89.70;;;;;;5022096;28;20542;-78
2021/06/15 09:32:23;;;;;;;1.73;0.60;;;22.10;84.10;;;;;;5038367;28;20216;-76
2021/06/15 09:34:53;;;;;;;0.60;0.47;;;22.40;86.10;;;;;;5042811;28;20200;-76
2021/06/15 09:37:40;;;;;;;1.75;0.50;;;21.90;84.80;;;;;;5044462;28;20200;-76
2021/06/15 09:40:11;;;;;;;2.13;0.60;;;21.60;84.50;;;;;;5040030;28;20224;-76
2021/06/15 09:43:03;;;;;;;1.10;0.50;;;21.70;86.60;;;;;;5027485;28;20219;-75
2021/06/15 09:45:33;;;;;;;2.00;0.60;;;22.30;83.10;;;;;;5020349;28;20247;-75
2021/06/15 09:48:28;;;;;;;1.95;0.70;;;22.00;85.40;;;;;;5042045;28;20194;-75
2021/06/15 09:51:11;;;;;;;3.63;0.50;;;22.50;89.90;;;;;;5040275;28;20201;-76
2021/06/15 09:53:40;;;;;;;1.60;0.60;;;23.10;83.00;;;;;;5039239;28;20285;-75
2021/06/15 09:56:10;;;;;;;3.72;0.50;;;23.10;83.10;;;;;;5025046;28;20606;-76
2021/06/15 09:58:46;;;;;;;1.55;0.45;;;23.10;80.40;;;;;;5025019;28;20647;-76
2021/06/15 10:01:28;;;;;;;2.20;0.45;;;23.50;85.70;;;;;;5037089;28;20683;-76
2021/06/15 10:04:15;;;;;;;2.22;0.50;;;23.70;81.50;;;;;;5026143;28;20202;-76
2021/06/15 10:07:02;;;;;;;1.02;0.43;;;23.30;77.80;;;;;;5024058;28;20210;-76
2021/06/15 10:09:30;;;;;;;1.55;0.55;;;23.20;81.30;;;;;;5019798;28;20240;-75
2021/06/15 10:11:59;;;;;;;6.30;0.63;;;23.00;76.10;;;;;;5018936;28;20605;-75
2021/06/15 10:14:26;;;;;;;1.77;0.40;;;23.10;81.00;;;;;;5024146;28;20190;-76
2021/06/15 10:16:52;;;;;;;2.40;0.50;;;23.30;81.40;;;;;;5018743;28;20369;-76
2021/06/15 10:19:18;;;;;;;2.95;0.30;;;23.30;79.60;;;;;;5020404;28;20229;-76
2021/06/15 10:21:44;;;;;;;0.90;0.43;;;23.30;77.40;;;;;;5017464;28;20679;-77
2021/06/15 10:24:12;;;;;;;2.38;0.60;;;23.50;79.20;;;;;;5019807;28;20293;-76
2021/06/15 10:26:38;;;;;;;0.65;0.32;;;23.50;77.50;;;;;;5011949;28;20206;-76
2021/06/15 10:29:11;;;;;;;2.63;0.57;;;23.30;75.20;;;;;;5023650;28;20201;-75
2021/06/15 10:31:40;;;;;;;3.33;0.52;;;23.20;77.50;;;;;;5016624;28;20201;-75
2021/06/15 10:34:06;;;;;;;1.50;0.50;;;22.90;73.90;;;;;;5020456;28;20683;-75
2021/06/15 10:36:46;;;;;;;6.43;0.50;;;23.30;79.70;;;;;;5022088;28;20194;-75
2021/06/15 10:39:36;;;;;;;0.68;0.35;;;23.40;73.80;;;;;;5024004;28;20272;-76
2021/06/15 10:42:16;;;;;;;0.93;0.50;;;23.40;77.60;;;;;;5022674;28;20239;-76
2021/06/15 10:44:43;;;;;;;4.40;0.65;;;23.70;74.00;;;;;;5022075;28;20221;-75
2021/06/15 10:47:11;;;;;;;0.57;0.40;;;23.90;76.40;;;;;;5021527;28;20211;-75
2021/06/15 10:49:56;;;;;;;1.13;0.50;;;24.40;75.50;;;;;;5022023;28;20206;-74
2021/06/15 10:52:23;;;;;;;0.52;0.38;;;24.30;68.50;;;;;;5020253;28;20750;-75
2021/06/15 10:54:49;;;;;;;2.03;0.57;;;24.40;65.60;;;;;;5023573;28;20220;-75
2021/06/15 10:57:24;;;;;;;0.32;0.30;;;24.40;74.30;;;;;;5024302;28;20198;-75
2021/06/15 11:00:12;;;;;;;3.33;0.55;;;24.60;74.60;;;;;;5020551;28;20204;-75
2021/06/15 11:02:38;;;;;;;0.55;0.30;;;25.20;65.60;;;;;;5021722;28;20255;-75
2021/06/15 11:05:44;;;;;;;0.68;0.47;;;25.40;67.30;;;;;;5024231;28;20226;-76
2021/06/15 11:08:17;;;;;;;1.23;0.38;;;24.60;66.40;;;;;;5042913;28;20197;-75
2021/06/15 11:11:17;;;;;;;0.65;0.40;;;24.70;72.10;;;;;;5040090;28;20209;-76
2021/06/15 11:13:43;;;;;;;2.92;0.40;;;24.20;72.00;;;;;;5041886;28;20248;-75
2021/06/15 11:16:34;;;;;;;2.78;0.50;;;24.20;67.30;;;;;;5041999;28;20229;-75
2021/06/15 11:21:44;;;;;;;0.32;0.30;;;24.20;66.50;;;;;;5039138;28;20200;-75
2021/06/15 11:24:21;;;;;;;1.25;0.47;;;24.40;67.60;;;;;;5035430;28;20212;-74
2021/06/15 11:26:49;;;;;;;1.70;0.60;;;24.30;71.70;;;;;;5017982;28;20247;-74
2021/06/15 11:29:37;;;;;;;2.50;0.50;;;24.80;69.80;;;;;;5043484;28;20197;-74
2021/06/15 11:32:27;;;;;;;0.57;0.32;;;24.30;65.30;;;;;;5040055;28;20193;-74
2021/06/15 11:34:53;;;;;;;0.95;0.40;;;24.00;64.30;;;;;;5020644;28;20194;-74
2021/06/15 11:37:43;;;;;;;4.00;0.40;;;24.30;68.10;;;;;;5021006;28;20680;-74
2021/06/15 11:40:30;;;;;;;1.17;0.40;;;24.00;64.30;;;;;;5006636;28;20609;-77
2021/06/15 11:43:17;;;;;;;1.35;0.40;;;23.70;65.90;;;;;;5028514;28;20205;-75
2021/06/15 11:45:51;;;;;;;0.75;0.40;;;23.70;68.80;;;;;;5035427;28;20726;-75
2021/06/15 11:48:18;;;;;;;1.13;0.40;;;24.30;69.30;;;;;;5018384;28;20289;-75
2021/06/15 11:50:46;;;;;;;1.27;0.30;;;24.90;67.70;;;;;;5014484;28;20296;-75
2021/06/15 11:53:18;;;;;;;1.35;0.38;;;24.80;67.10;;;;;;5037729;28;20234;-75
2021/06/15 11:55:46;;;;;;;1.90;0.40;;;24.80;67.30;;;;;;5037825;28;20260;-76
2021/06/15 11:58:23;;;;;;;0.52;0.40;;;25.00;64.10;;;;;;5036755;28;20201;-76
2021/06/15 12:00:56;;;;;;;0.60;0.40;;;24.90;64.50;;;;;;5031190;28;20221;-76
2021/06/15 12:03:24;;;;;;;2.28;0.45;;;24.90;66.10;;;;;;5040122;28;20749;-77
2021/06/15 12:05:58;;;;;;;1.13;0.35;;;25.10;65.70;;;;;;5011998;28;20281;-76
2021/06/15 12:08:41;;;;;;;0.45;0.35;;;25.10;63.00;;;;;;5009259;28;20235;-77
2021/06/15 12:11:10;;;;;;;1.58;0.43;;;25.20;67.70;;;;;;5017206;28;20202;-76
2021/06/15 12:13:38;;;;;;;0.43;0.22;;;25.50;65.10;;;;;;5020255;28;20209;-76
2021/06/15 12:16:06;;;;;;;2.42;0.30;;;26.10;67.70;;;;;;5014471;28;20194;-76
2021/06/15 12:18:49;;;;;;;0.75;0.40;;;25.60;62.60;;;;;;5020648;28;20197;-76
2021/06/15 12:21:24;;;;;;;1.27;0.40;;;24.70;65.50;;;;;;5013766;28;20288;-76
2021/06/15 12:23:56;;;;;;;1.20;0.50;;;24.00;67.60;;;;;;5014236;28;20194;-76
2021/06/15 12:26:34;;;;;;;0.43;0.30;;;23.40;68.60;;;;;;5014356;28;20751;-77
2021/06/15 12:29:05;;;;;;;1.92;0.40;;;23.40;71.50;;;;;;5016919;28;20740;-76
2021/06/15 12:31:42;;;;;;;4.80;0.40;;;23.20;70.00;;;;;;5007852;28;20201;-76
2021/06/15 12:34:13;;;;;;;1.73;0.47;;;23.50;71.40;;;;;;5008725;28;20194;-76
2021/06/15 12:36:45;;;;;;;2.05;0.50;;;23.40;69.20;;;;;;5009754;28;20293;-76
2021/06/15 12:39:17;;;;;;;0.50;0.50;;;23.00;71.90;;;;;;5017699;28;20186;-76
2021/06/15 12:41:53;;;;;;;3.25;0.63;;;22.80;72.60;;;;;;5014564;28;20202;-76
2021/06/15 12:44:36;;;;;;;6.78;4.38;;;23.10;70.80;;;;;;5018788;28;20198;-78
2021/06/15 12:47:10;;;;;;;3.17;0.60;;;23.90;72.30;;;;;;5016157;28;20202;-76
2021/06/15 12:49:37;;;;;;;99.53;56.38;;;23.30;67.30;;;;;;5015762;28;20859;-76
2021/06/15 12:52:11;;;;;;;10.32;5.78;;;23.00;67.00;;;;;;5019839;28;20198;-76
2021/06/15 12:54:41;;;;;;;4.40;1.30;;;23.20;71.10;;;;;;5017481;28;20186;-76
2021/06/15 12:57:10;;;;;;;2.95;1.15;;;24.00;68.20;;;;;;5017774;28;20229;-76
2021/06/15 12:59:41;;;;;;;12.25;5.13;;;24.70;71.50;;;;;;5018759;28;20322;-76
2021/06/15 13:02:10;;;;;;;4.53;1.77;;;25.10;66.00;;;;;;5017640;28;20706;-76
2021/06/15 13:04:52;;;;;;;5.70;1.10;;;25.50;65.00;;;;;;5023865;28;20225;-76
2021/06/15 13:07:19;;;;;;;43.40;31.20;;;25.80;64.60;;;;;;5036978;28;20202;-75
2021/06/15 13:09:45;;;;;;;5.60;2.25;;;26.10;61.10;;;;;;5038957;28;20263;-76
2021/06/15 13:12:17;;;;;;;1.17;0.70;;;26.10;58.60;;;;;;5023747;28;20657;-75
2021/06/15 13:14:43;;;;;;;9.23;7.05;;;25.70;59.40;;;;;;5039346;28;20285;-75
2021/06/15 13:17:29;;;;;;;13.18;9.75;;;25.40;63.30;;;;;;5040288;28;20377;-75